Amonate, Virginia
Current Conditions -  °F | °C
As of 4:15 PM on Tuesday 27 Jan 2015 (Local Time) from KJFZ Reporting Station
Clear Clear  
Wind Chill: 21°   Ceiling: Unl
Heat Index: 29°   Visibility: 10mi
Dew Point:   Wind: 8mph
Humidity: 39%   Direction: 310°NW
Pressure: 29.88"   Gusts: NA
Location:  37.19°N, 81.64°W
Report Text: KJFZ 272115Z AUTO 31007KT 10SM CLR M02/M14 A2988 RMK AO2 T10171141
Loading
Personal Weather Stations






























Interactive Weather Map New forecast layout! Learn more

10-Day Weather Forecast

Advertisements
Track Severe Weather on mobile